createdAt,value
2022-08-18T00:02:18.097Z,20.20
2022-08-18T00:04:49.678Z,20.30
2022-08-18T00:07:22.847Z,20.30
2022-08-18T00:09:52.753Z,20.30
2022-08-18T00:12:23.021Z,20.30
2022-08-18T00:14:51.827Z,20.20
2022-08-18T00:17:20.146Z,20.30
2022-08-18T00:19:48.559Z,20.30
2022-08-18T00:22:19.533Z,20.40
2022-08-18T00:24:50.493Z,20.40
2022-08-18T00:27:23.704Z,20.50
2022-08-18T00:29:56.261Z,20.60
2022-08-18T00:32:26.512Z,20.80
2022-08-18T00:34:55.846Z,20.80
2022-08-18T00:37:25.450Z,20.70
2022-08-18T00:39:54.380Z,20.60
2022-08-18T00:42:30.775Z,20.60
2022-08-18T00:45:05.141Z,20.60
2022-08-18T00:47:42.416Z,20.70
2022-08-18T00:50:15.464Z,20.60
2022-08-18T00:52:46.345Z,20.50
2022-08-18T00:55:14.930Z,20.40
2022-08-18T00:57:45.397Z,20.30
2022-08-18T01:00:15.345Z,20.20
2022-08-18T01:02:48.816Z,20.20
2022-08-18T01:05:22.671Z,20.10
2022-08-18T01:07:51.373Z,20.10
2022-08-18T01:10:22.582Z,20.10
2022-08-18T01:12:54.972Z,20.10
2022-08-18T01:15:27.759Z,20.00
2022-08-18T01:18:16.080Z,19.90
2022-08-18T01:21:13.060Z,20.00
2022-08-18T01:23:42.765Z,20.10
2022-08-18T01:26:10.204Z,19.90
2022-08-18T01:28:41.303Z,19.70
2022-08-18T01:31:11.004Z,19.80
2022-08-18T01:33:42.622Z,19.80
2022-08-18T01:36:16.954Z,19.90
2022-08-18T01:38:50.205Z,20.00
2022-08-18T01:41:26.042Z,20.10
2022-08-18T01:43:56.325Z,20.10
2022-08-18T01:46:25.192Z,20.20
2022-08-18T01:48:53.732Z,20.30
2022-08-18T01:51:38.935Z,20.30
2022-08-18T01:54:12.946Z,20.40
2022-08-18T01:56:43.052Z,20.20
2022-08-18T01:59:14.552Z,20.20
2022-08-18T02:01:50.595Z,20.10
2022-08-18T02:04:40.581Z,20.10
2022-08-18T02:07:11.514Z,20.10
2022-08-18T02:09:43.335Z,20.30
2022-08-18T02:12:14.394Z,20.60
2022-08-18T02:14:45.160Z,20.80
2022-08-18T02:17:15.307Z,20.90
2022-08-18T02:19:46.939Z,21.10
2022-08-18T02:22:17.730Z,21.20
2022-08-18T02:24:47.675Z,21.20
2022-08-18T02:27:17.049Z,21.20
2022-08-18T02:29:46.111Z,21.20
2022-08-18T02:32:14.400Z,21.20
2022-08-18T02:34:42.898Z,21.20
2022-08-18T02:37:15.014Z,21.30
2022-08-18T02:39:43.511Z,21.30
2022-08-18T02:42:14.925Z,21.40
2022-08-18T02:44:43.113Z,21.40
2022-08-18T02:47:11.449Z,21.40
2022-08-18T02:49:39.898Z,21.40
2022-08-18T02:52:09.631Z,21.40
2022-08-18T02:54:37.728Z,21.30
2022-08-18T02:57:10.847Z,21.20
2022-08-18T02:59:41.847Z,21.20
2022-08-18T03:02:15.548Z,21.20
2022-08-18T03:04:43.638Z,21.30
2022-08-18T03:07:12.001Z,21.30
2022-08-18T03:09:40.097Z,21.20
2022-08-18T03:12:09.669Z,21.20
2022-08-18T03:14:40.072Z,21.20
2022-08-18T03:17:11.084Z,21.20
2022-08-18T03:19:39.711Z,21.20
2022-08-18T03:24:52.435Z,21.20
2022-08-18T03:27:20.582Z,21.10
2022-08-18T03:29:51.442Z,21.00
2022-08-18T03:32:21.269Z,21.00
2022-08-18T03:34:49.526Z,20.90
2022-08-18T03:37:18.730Z,21.00
2022-08-18T03:39:46.996Z,20.90
2022-08-18T03:42:20.111Z,20.90
2022-08-18T03:47:35.604Z,20.80
2022-08-18T03:50:07.119Z,20.80
2022-08-18T03:52:42.083Z,20.80
2022-08-18T03:55:10.727Z,20.70
2022-08-18T03:57:39.355Z,20.60
2022-08-18T04:00:27.766Z,20.50
2022-08-18T04:03:15.878Z,20.40
2022-08-18T04:05:50.198Z,20.30
2022-08-18T04:08:18.437Z,20.20
2022-08-18T04:10:46.820Z,20.10
2022-08-18T04:13:15.145Z,20.20
2022-08-18T04:15:43.258Z,20.20
2022-08-18T04:18:12.185Z,20.20
2022-08-18T04:20:59.221Z,20.20
2022-08-18T04:23:28.163Z,20.30
2022-08-18T04:25:58.975Z,20.40
2022-08-18T04:28:30.777Z,20.40
2022-08-18T04:30:59.502Z,20.40
2022-08-18T04:33:28.493Z,20.20
2022-08-18T04:35:58.165Z,20.10
2022-08-18T04:38:26.433Z,19.90
2022-08-18T04:40:54.501Z,19.90
2022-08-18T04:43:22.603Z,19.90
2022-08-18T04:45:51.389Z,19.90
2022-08-18T04:48:19.528Z,19.80
2022-08-18T04:50:50.912Z,19.70
2022-08-18T04:53:37.166Z,19.70
2022-08-18T04:56:05.577Z,19.60
2022-08-18T04:58:35.535Z,19.50
2022-08-18T05:01:03.842Z,19.50
2022-08-18T05:03:32.324Z,19.40
2022-08-18T05:06:00.798Z,19.40
2022-08-18T05:08:30.218Z,19.30
2022-08-18T05:11:03.803Z,19.30
2022-08-18T05:13:32.503Z,19.20
2022-08-18T05:16:18.183Z,19.10
2022-08-18T05:18:48.868Z,19.20
2022-08-18T05:21:19.245Z,19.20
2022-08-18T05:23:51.150Z,19.20
2022-08-18T05:26:20.247Z,19.10
2022-08-18T05:28:48.579Z,19.10
2022-08-18T05:31:25.362Z,19.00
2022-08-18T05:33:55.619Z,19.00
2022-08-18T05:36:51.807Z,19.00
2022-08-18T05:39:25.398Z,19.00
2022-08-18T05:41:56.493Z,19.10
2022-08-18T05:44:27.740Z,19.00
2022-08-18T05:46:58.567Z,19.00
2022-08-18T05:49:28.182Z,19.00
2022-08-18T05:51:59.966Z,18.90
2022-08-18T05:54:55.512Z,18.90
2022-08-18T05:57:26.124Z,19.00
2022-08-18T05:59:56.080Z,19.00
2022-08-18T06:02:32.680Z,19.10
2022-08-18T06:05:04.144Z,19.10
2022-08-18T06:07:36.882Z,19.00
2022-08-18T06:10:07.664Z,19.00
2022-08-18T06:12:43.388Z,19.00
2022-08-18T06:15:18.057Z,19.00
2022-08-18T06:18:08.659Z,19.00
2022-08-18T06:20:54.862Z,19.10
2022-08-18T06:23:34.386Z,19.10
2022-08-18T06:26:13.924Z,19.00
2022-08-18T06:28:53.605Z,19.00
2022-08-18T06:31:29.656Z,19.00
2022-08-18T06:34:09.050Z,19.10
2022-08-18T06:36:46.737Z,19.20
2022-08-18T06:39:23.786Z,19.30
2022-08-18T06:41:54.177Z,19.50
2022-08-18T06:44:31.440Z,19.70
2022-08-18T06:47:04.682Z,19.90
2022-08-18T06:49:41.018Z,20.20
2022-08-18T06:52:29.137Z,20.50
2022-08-18T06:54:59.059Z,20.70
2022-08-18T06:57:33.427Z,20.90
2022-08-18T07:00:07.570Z,21.00
2022-08-18T07:02:47.512Z,21.10
2022-08-18T07:05:27.348Z,21.10
2022-08-18T07:08:15.963Z,21.10
2022-08-18T07:10:48.464Z,21.10
2022-08-18T07:13:22.372Z,21.10
2022-08-18T07:15:51.828Z,21.10
2022-08-18T07:18:26.417Z,21.10
2022-08-18T07:20:57.279Z,21.20
2022-08-18T07:23:29.235Z,21.20
2022-08-18T07:26:09.498Z,21.30
2022-08-18T07:28:41.820Z,21.50
2022-08-18T07:31:35.074Z,21.50
2022-08-18T07:34:08.438Z,21.50
2022-08-18T07:36:47.414Z,21.60
2022-08-18T07:39:21.553Z,21.60
2022-08-18T07:41:53.486Z,21.70
2022-08-18T07:44:27.463Z,21.80
2022-08-18T07:47:00.683Z,21.80
2022-08-18T07:49:33.422Z,21.80
2022-08-18T07:52:07.139Z,22.00
2022-08-18T07:55:02.605Z,22.00
2022-08-18T07:57:42.220Z,22.00
2022-08-18T08:00:55.276Z,22.20
2022-08-18T08:03:31.951Z,22.20
2022-08-18T08:06:09.584Z,22.20
2022-08-18T08:08:43.163Z,22.30
2022-08-18T08:11:23.286Z,22.40
2022-08-18T08:14:07.169Z,22.60
2022-08-18T08:16:46.293Z,22.60
2022-08-18T08:19:59.915Z,22.40
2022-08-18T08:22:35.887Z,22.30
2022-08-18T08:25:28.323Z,22.20
2022-08-18T08:28:09.287Z,22.20
2022-08-18T08:30:44.403Z,22.00
2022-08-18T08:33:24.685Z,21.90
2022-08-18T08:35:59.016Z,22.10
2022-08-18T08:38:42.725Z,22.20
2022-08-18T08:41:19.501Z,22.30
2022-08-18T08:43:54.447Z,22.30
2022-08-18T08:46:25.519Z,22.30
2022-08-18T08:49:04.404Z,22.40
2022-08-18T08:51:37.782Z,22.60
2022-08-18T08:54:11.308Z,22.70
2022-08-18T08:56:45.074Z,22.80
2022-08-18T08:59:24.093Z,22.70
2022-08-18T09:02:04.348Z,22.80
2022-08-18T09:04:54.135Z,22.90
2022-08-18T09:07:50.999Z,23.10
2022-08-18T09:10:39.787Z,23.20
2022-08-18T09:13:34.552Z,23.20
2022-08-18T09:16:30.983Z,23.20
2022-08-18T09:19:17.914Z,23.20
2022-08-18T09:21:54.114Z,23.00
2022-08-18T09:24:28.996Z,22.90
2022-08-18T09:27:16.797Z,22.90
2022-08-18T09:29:52.900Z,22.90
2022-08-18T09:32:53.892Z,23.10
2022-08-18T09:35:54.676Z,23.10
2022-08-18T09:38:46.092Z,23.10
2022-08-18T09:41:35.195Z,23.20
2022-08-18T09:44:21.559Z,23.10
2022-08-18T09:46:57.921Z,22.90
2022-08-18T09:49:47.778Z,22.90
2022-08-18T09:52:56.085Z,22.90
2022-08-18T09:55:59.091Z,22.90
2022-08-18T09:58:58.774Z,22.90
2022-08-18T10:01:38.140Z,22.90
2022-08-18T10:04:29.379Z,22.90
2022-08-18T10:07:17.662Z,23.10
2022-08-18T10:10:00.801Z,23.30
2022-08-18T10:12:40.730Z,23.30
2022-08-18T10:15:35.741Z,23.40
2022-08-18T10:18:35.654Z,23.40
2022-08-18T10:21:12.975Z,23.40
2022-08-18T10:24:31.799Z,23.40
2022-08-18T10:27:33.460Z,23.50
2022-08-18T10:30:06.705Z,23.70
2022-08-18T10:32:54.478Z,23.90
2022-08-18T10:35:55.582Z,24.20
2022-08-18T10:38:36.908Z,24.50
2022-08-18T10:41:15.958Z,24.80
2022-08-18T10:43:55.608Z,24.90
2022-08-18T10:46:32.553Z,24.90
2022-08-18T10:49:17.674Z,25.00
2022-08-18T10:52:09.723Z,25.10
2022-08-18T10:55:02.325Z,25.10
2022-08-18T10:57:47.753Z,24.90
2022-08-18T11:00:19.787Z,24.80
2022-08-18T11:03:40.117Z,24.70
2022-08-18T11:06:22.134Z,24.90
2022-08-18T11:08:59.059Z,25.00
2022-08-18T11:11:39.399Z,25.10
2022-08-18T11:14:24.265Z,25.20
2022-08-18T11:17:02.719Z,25.20
2022-08-18T11:19:41.914Z,25.20
2022-08-18T11:22:31.141Z,25.10
2022-08-18T11:25:00.679Z,24.90
2022-08-18T11:27:30.450Z,24.80
2022-08-18T11:30:01.632Z,24.80
2022-08-18T11:32:34.816Z,25.00
2022-08-18T11:35:08.026Z,25.20
2022-08-18T11:37:51.461Z,25.30
2022-08-18T11:43:38.998Z,25.10
2022-08-18T11:46:16.905Z,25.20
2022-08-18T11:48:52.427Z,25.10
2022-08-18T11:51:27.079Z,25.00
2022-08-18T11:54:00.146Z,24.90
2022-08-18T12:02:25.261Z,24.50
2022-08-18T12:04:55.218Z,24.70
2022-08-18T12:07:32.950Z,24.80
2022-08-18T12:10:19.308Z,24.80
2022-08-18T12:12:51.984Z,24.80
2022-08-18T12:15:29.619Z,24.80
2022-08-18T12:18:18.914Z,24.70
2022-08-18T12:23:52.516Z,25.00
2022-08-18T12:29:11.159Z,25.00
2022-08-18T12:31:47.698Z,24.90
2022-08-18T12:34:16.571Z,24.80
2022-08-18T12:36:46.398Z,24.50
2022-08-18T12:39:15.903Z,24.40
2022-08-18T12:41:44.124Z,24.30
2022-08-18T12:44:13.024Z,24.30
2022-08-18T12:46:42.994Z,24.30
2022-08-18T12:49:16.168Z,24.20
2022-08-18T12:51:44.641Z,24.30
2022-08-18T12:54:13.031Z,24.40
2022-08-18T12:56:45.095Z,24.40
2022-08-18T12:59:13.088Z,24.30
2022-08-18T13:01:42.303Z,24.30
2022-08-18T13:04:13.834Z,24.30
2022-08-18T13:07:00.261Z,24.40
2022-08-18T13:09:35.371Z,24.40
2022-08-18T13:12:14.956Z,24.20
2022-08-18T13:14:44.130Z,24.20
2022-08-18T13:17:32.968Z,24.20
2022-08-18T13:20:01.130Z,24.20
2022-08-18T13:22:32.314Z,24.20
2022-08-18T13:25:01.552Z,24.20
2022-08-18T13:27:35.203Z,24.20
2022-08-18T13:30:29.745Z,24.20
2022-08-18T13:32:59.432Z,24.30
2022-08-18T13:35:37.951Z,24.40
2022-08-18T13:38:15.723Z,24.40
2022-08-18T13:40:49.394Z,24.50
2022-08-18T13:43:23.477Z,24.50
2022-08-18T13:45:53.257Z,24.50
2022-08-18T13:48:24.218Z,24.50
2022-08-18T13:50:53.851Z,24.50
2022-08-18T13:53:26.206Z,24.40
2022-08-18T13:55:54.780Z,24.40
2022-08-18T13:58:24.218Z,24.30
2022-08-18T14:00:53.915Z,24.30
2022-08-18T14:03:31.015Z,24.30
2022-08-18T14:06:13.294Z,24.20
2022-08-18T14:08:42.316Z,24.20
2022-08-18T14:11:10.670Z,24.10
2022-08-18T14:13:46.968Z,24.10
2022-08-18T14:16:19.462Z,24.00
2022-08-18T14:19:09.494Z,24.10
2022-08-18T14:21:59.608Z,24.10
2022-08-18T14:24:48.889Z,24.00
2022-08-18T14:27:17.963Z,23.90
2022-08-18T14:29:48.833Z,23.90
2022-08-18T14:32:28.631Z,23.90
2022-08-18T14:35:00.165Z,23.90
2022-08-18T14:37:30.205Z,23.90
2022-08-18T14:39:58.533Z,23.90
2022-08-18T14:42:41.436Z,23.90
2022-08-18T14:45:26.341Z,23.90
2022-08-18T14:48:00.120Z,23.90
2022-08-18T14:50:28.394Z,23.90
2022-08-18T14:53:15.103Z,23.80
2022-08-18T14:56:03.573Z,23.80
2022-08-18T14:58:52.464Z,23.70
2022-08-18T15:01:35.958Z,23.60
2022-08-18T15:04:18.611Z,23.50
2022-08-18T15:06:55.731Z,23.40
2022-08-18T15:09:26.828Z,23.30
2022-08-18T15:11:58.062Z,23.30
2022-08-18T15:14:33.526Z,23.20
2022-08-18T15:17:13.210Z,23.10
2022-08-18T15:20:00.179Z,23.10
2022-08-18T15:22:47.766Z,23.10
2022-08-18T15:25:33.374Z,23.00
2022-08-18T15:28:01.724Z,22.90
2022-08-18T15:30:29.827Z,22.90
2022-08-18T15:33:03.201Z,22.90
2022-08-18T15:35:31.598Z,22.80
2022-08-18T15:38:00.643Z,22.80
2022-08-18T15:41:09.359Z,22.70
2022-08-18T15:43:45.937Z,22.50
2022-08-18T15:46:16.872Z,22.40
2022-08-18T15:48:46.476Z,22.20
2022-08-18T15:51:14.539Z,22.10
2022-08-18T15:53:45.696Z,22.00
2022-08-18T15:56:16.605Z,21.90
2022-08-18T15:58:49.342Z,21.70
2022-08-18T16:01:29.701Z,21.60
2022-08-18T16:03:59.756Z,21.50
2022-08-18T16:06:32.518Z,21.40
2022-08-18T16:09:02.182Z,21.40
2022-08-18T16:11:31.713Z,21.30
2022-08-18T16:13:59.952Z,21.30
2022-08-18T16:16:29.263Z,21.20
2022-08-18T16:19:06.956Z,21.30
2022-08-18T16:21:40.247Z,21.30
2022-08-18T16:24:09.279Z,21.30
2022-08-18T16:26:37.510Z,21.60
2022-08-18T16:29:05.622Z,21.80
2022-08-18T16:31:33.862Z,22.00
2022-08-18T16:34:01.829Z,22.10
2022-08-18T16:36:31.265Z,22.20
2022-08-18T16:38:59.418Z,22.40
2022-08-18T16:41:27.913Z,22.50
2022-08-18T16:43:56.215Z,22.60
2022-08-18T16:46:27.687Z,22.50
2022-08-18T16:48:56.529Z,22.30
2022-08-18T16:51:27.645Z,22.10
2022-08-18T16:53:57.362Z,22.10
2022-08-18T16:56:27.697Z,22.10
2022-08-18T16:59:13.642Z,22.10
2022-08-18T17:02:09.313Z,22.10
2022-08-18T17:04:37.604Z,22.00
2022-08-18T17:07:07.516Z,21.90
2022-08-18T17:09:37.348Z,21.30
2022-08-18T17:12:06.298Z,21.20
2022-08-18T17:14:34.556Z,20.90
2022-08-18T17:17:02.697Z,20.80
2022-08-18T17:19:33.650Z,20.50
2022-08-18T17:22:01.961Z,20.40
2022-08-18T17:24:32.257Z,20.30
2022-08-18T17:27:25.668Z,20.20
2022-08-18T17:30:01.579Z,20.30
2022-08-18T17:35:09.954Z,20.40
2022-08-18T17:37:41.231Z,20.40
2022-08-18T17:40:17.502Z,20.30
2022-08-18T17:42:51.539Z,20.20
2022-08-18T17:45:21.776Z,20.10
2022-08-18T17:47:56.756Z,20.10
2022-08-18T17:50:46.679Z,20.20
2022-08-18T17:53:15.668Z,20.10
2022-08-18T17:55:48.420Z,20.00
2022-08-18T17:58:24.518Z,19.70
2022-08-18T18:00:52.662Z,19.40
2022-08-18T18:03:20.673Z,19.20
2022-08-18T18:05:52.697Z,19.30
2022-08-18T18:08:21.043Z,19.50
2022-08-18T18:11:03.863Z,19.70
2022-08-18T18:13:34.966Z,19.90
2022-08-18T18:16:20.798Z,20.00
2022-08-18T18:19:00.909Z,20.20
2022-08-18T18:21:55.328Z,20.40
2022-08-18T18:24:29.468Z,20.50
2022-08-18T18:26:57.978Z,20.60
2022-08-18T18:29:33.374Z,20.80
2022-08-18T18:32:07.057Z,21.00
2022-08-18T18:34:39.088Z,20.90
2022-08-18T18:37:23.788Z,20.90
2022-08-18T18:39:58.236Z,20.70
2022-08-18T18:42:29.217Z,20.70
2022-08-18T18:45:00.191Z,20.60
2022-08-18T18:47:50.351Z,20.60
2022-08-18T18:50:27.145Z,20.40
2022-08-18T18:53:09.056Z,20.40
2022-08-18T18:55:44.880Z,20.50
2022-08-18T18:58:25.016Z,20.50
2022-08-18T19:01:00.133Z,20.60
2022-08-18T19:03:37.577Z,20.60
2022-08-18T19:06:19.043Z,20.60
2022-08-18T19:08:57.873Z,20.50
2022-08-18T19:11:30.593Z,20.50
2022-08-18T19:14:03.022Z,20.50
2022-08-18T19:16:42.089Z,20.40
2022-08-18T19:19:37.921Z,20.30
2022-08-18T19:22:11.089Z,20.30
2022-08-18T19:24:45.582Z,20.40
2022-08-18T19:27:23.249Z,20.50
2022-08-18T19:29:55.317Z,20.50
2022-08-18T19:32:35.343Z,20.40
2022-08-18T19:35:12.214Z,20.40
2022-08-18T19:38:04.776Z,20.40
2022-08-18T19:40:42.736Z,20.40
2022-08-18T19:43:15.896Z,20.40
2022-08-18T19:45:49.845Z,20.40
2022-08-18T19:48:26.431Z,20.40
2022-08-18T19:50:59.057Z,20.50
2022-08-18T19:53:48.228Z,20.60
2022-08-18T19:56:29.049Z,20.60
2022-08-18T19:59:17.802Z,20.70
2022-08-18T20:01:58.143Z,20.60
2022-08-18T20:04:44.493Z,20.60
2022-08-18T20:07:28.498Z,20.60
2022-08-18T20:10:09.642Z,20.60
2022-08-18T20:12:55.636Z,20.40
2022-08-18T20:15:26.405Z,20.40
2022-08-18T20:18:05.743Z,20.40
2022-08-18T20:20:38.613Z,20.40
2022-08-18T20:23:32.504Z,20.20
2022-08-18T20:26:00.598Z,20.10
2022-08-18T20:28:38.239Z,20.10
2022-08-18T20:31:19.699Z,19.90
2022-08-18T20:34:12.247Z,19.90
2022-08-18T20:36:45.484Z,19.80
2022-08-18T20:39:42.542Z,19.80
2022-08-18T20:42:51.562Z,19.80
2022-08-18T20:45:29.336Z,19.80
2022-08-18T20:48:10.985Z,19.80
2022-08-18T20:51:09.989Z,19.90
2022-08-18T20:54:09.272Z,20.00
2022-08-18T20:56:46.447Z,20.00
2022-08-18T20:59:20.090Z,20.10
2022-08-18T21:02:00.736Z,20.20
2022-08-18T21:04:46.249Z,20.10
2022-08-18T21:07:19.583Z,20.10
2022-08-18T21:10:13.003Z,20.00
2022-08-18T21:12:52.542Z,19.90
2022-08-18T21:15:24.026Z,19.80
2022-08-18T21:17:59.043Z,19.80
2022-08-18T21:20:28.484Z,19.70
2022-08-18T21:23:04.478Z,19.70
2022-08-18T21:25:34.322Z,19.70
2022-08-18T21:28:03.925Z,19.60
2022-08-18T21:30:32.711Z,19.50
2022-08-18T21:33:02.183Z,19.60
2022-08-18T21:35:33.474Z,19.60
2022-08-18T21:38:03.976Z,19.60
2022-08-18T21:40:43.368Z,19.60
2022-08-18T21:43:14.385Z,19.60
2022-08-18T21:45:53.042Z,19.60
2022-08-18T21:48:23.833Z,19.50
2022-08-18T21:50:54.475Z,19.50
2022-08-18T21:53:28.245Z,19.50
2022-08-18T21:55:58.884Z,19.30
2022-08-18T21:58:33.842Z,19.30
2022-08-18T22:01:16.099Z,19.30
2022-08-18T22:03:53.667Z,19.20
2022-08-18T22:06:29.731Z,19.20
2022-08-18T22:09:21.229Z,19.20
2022-08-18T22:12:28.194Z,19.30
2022-08-18T22:15:07.857Z,19.30
2022-08-18T22:17:44.905Z,19.40
2022-08-18T22:20:42.313Z,19.50
2022-08-18T22:23:50.669Z,19.40
2022-08-18T22:26:22.157Z,19.30
2022-08-18T22:28:55.474Z,19.30
2022-08-18T22:31:26.472Z,19.30
2022-08-18T22:33:55.437Z,19.30
2022-08-18T22:36:29.289Z,19.30
2022-08-18T22:38:57.422Z,19.30
2022-08-18T22:41:26.030Z,19.30
2022-08-18T22:43:55.497Z,19.30
2022-08-18T22:46:25.752Z,19.20
2022-08-18T22:48:54.305Z,19.30
2022-08-18T22:51:24.277Z,19.30
2022-08-18T22:53:53.059Z,19.30
2022-08-18T22:56:22.752Z,19.40
2022-08-18T22:59:03.187Z,19.40
2022-08-18T23:01:45.376Z,19.50
2022-08-18T23:04:13.539Z,19.50
2022-08-18T23:06:41.831Z,19.40
2022-08-18T23:09:09.878Z,19.40
2022-08-18T23:11:37.887Z,19.30
2022-08-18T23:14:06.232Z,19.30
2022-08-18T23:16:34.346Z,19.30
2022-08-18T23:19:03.745Z,19.30
2022-08-18T23:21:34.863Z,19.20
2022-08-18T23:24:04.661Z,19.20
2022-08-18T23:26:33.890Z,19.20
2022-08-18T23:29:02.060Z,19.20
2022-08-18T23:31:30.347Z,19.20
2022-08-18T23:34:00.714Z,19.20
2022-08-18T23:36:31.118Z,19.20
2022-08-18T23:38:59.130Z,19.20
2022-08-18T23:41:27.462Z,19.20
2022-08-18T23:43:55.523Z,19.30
2022-08-18T23:46:28.486Z,19.20
2022-08-18T23:48:58.589Z,19.20
2022-08-18T23:51:31.170Z,19.10
2022-08-18T23:54:02.191Z,19.20
2022-08-18T23:56:31.845Z,19.20
2022-08-18T23:59:00.652Z,19.20
